aviador You're here:

UKHH Decoded Metar

KHARKOV in UKRAINE
Report Time2018-02-25 11:00:00
UTC Time2018-02-25 11:12:51
Flight Rules vfr VFR
Wind040° at 8 kt
W.Decomp.*RWY 07: 6.3 kt HW 4.9 kt LCW
W.Rank040° ranks 25
Current wind is above 040° avg. (7.6)
Visibility9999 m
Phenomena:N/A
Clouds:Few 020 Hf
Expected CloudBase > 1,600 ft AGL from Temp-Dew spread
CeilingNone
Temp-11°C (ISA -25)
Dew Point-15°C (73% RH)
AAT-17.2°C
QNH1018 hPa
Density Alt-2,762 ft
Elevation509 ft
Report Wrong Elevation
Raw Report
UKHH 251100Z 04004MPS 360V070 9999 FEW020 M11/M15 Q1018 R07/0///66
NOSIG=

Extra information for UKHH:More info

Metar Taf Metar & Taf Last 4 Metars F.Rules Stats Wind Profile Meteogram Temp Stats Airport Information Weather charts Add Link Nearby VenuesMetar ALERT Operation Metar Decoded Social comments